Fedora — SLKU — position and weather

sailwx.info

Track history (hours):
 
Tides and Currents Weather Stations Pressure Air Temp Water Temp Dewpoint Dewpoint Depression Visibility Wind Speed Wind Dir Waves Ship Positions

Fedora

Last reported at 2015-Aug-22 18:00 UTC. Time now 2015-Aug-29 00:16 UTC.
Position S 02°30' E 152°48'.

Length 228 m; draft 8.3 m.

Type: Cargo ship. MMSI: 266259000.

Wind from 150 at 14 knots

Barometer 1010.9 mb
Air temperature 24.0 ° C
Visibility: greater than 10.8 NM
Water temperature 29.0 ° C

Date/timePositionNaut miles runAvg speedWind from/ knotsBaromVisibWave heightAir tempDewpointWater temp
2015-Aug-22 18:00S 02°30' E 152°48'20817.4 150 / 141010.910.8 24.0 29.0
2015-Aug-22 06:00S 05°54' E 153°30'42417.7 170 / 81010.610.8 28.0 29.0
2015-Aug-21 06:00S 12°54' E 154°30'10818.0 130 / 161012.210.8 26.0 28.0
2015-Aug-21 00:00S 14°42' E 154°24'71717.7 120 / 101015.310.8 26.0 27.0
2015-Aug-19 07:33S 26°36' E 153°15'1413.6
2015-Aug-19 06:30S 26°49' E 153°09'1717.7
2015-Aug-19 05:33S 27°04' E 153°18'1514.2
2015-Aug-19 04:32S 27°18' E 153°13'6 0.8
2015-Aug-18 21:33S 27°23' E 153°10'7 7.1
2015-Aug-18 20:33S 27°17' E 153°14'1413.8
2015-Aug-18 19:33S 27°03' E 153°18'1615.9
2015-Aug-18 18:33S 26°49' E 153°09'8 8.3
2015-Aug-18 17:33S 26°43' E 153°15'1413.3
2015-Aug-18 16:28S 26°52' E 153°27'1213.1
2015-Aug-18 15:33S 27°02' E 153°35'1613.5
2015-Aug-18 14:20S 27°18' E 153°39'1114.0
2015-Aug-18 13:34S 27°28' E 153°40'1414.5
2015-Aug-18 12:34S 27°43' E 153°41'1814.6
2015-Aug-18 11:20S 28°01' E 153°42'24815.2
2015-Aug-17 19:03S 32°04' E 152°48'916.0
2015-Aug-17 18:29S 32°13' E 152°44'1515.9
2015-Aug-17 17:33S 32°26' E 152°37'1515.5
2015-Aug-17 16:33S 32°39' E 152°28'1616.1
2015-Aug-17 15:33S 32°53' E 152°17'1616.2
2015-Aug-17 14:33S 33°06' E 152°06'1716.6
2015-Aug-17 13:33S 33°20' E 151°55'244 8.4
2015-Aug-16 08:31S 37°09' E 150°13'1717.7
2015-Aug-16 07:33S 37°26' E 150°06'1716.9
2015-Aug-16 06:33S 37°40' E 149°55'1717.5
2015-Aug-16 05:33S 37°52' E 149°40'2117.7
2015-Aug-16 04:24S 38°05' E 149°20'1517.3
2015-Aug-16 03:32S 38°15' E 149°05'3517.7
2015-Aug-16 01:33S 38°37' E 148°31'1717.4
2015-Aug-16 00:33S 38°47' E 148°12'2017.5
2015-Aug-15 23:23S 38°54' E 147°48'1517.5
2015-Aug-15 22:33S 38°59' E 147°30'1817.7
2015-Aug-15 21:33S 39°06' E 147°09'1818.0
2015-Aug-15 20:33S 39°12' E 146°47'1818.0
2015-Aug-15 19:33S 39°16' E 146°24'1817.9
2015-Aug-15 18:33S 39°10' E 146°02'1818.1
2015-Aug-15 17:33S 39°00' E 145°43'2118.3
2015-Aug-15 16:25S 38°48' E 145°20'108 3.0
2015-Aug-14 04:17S 38°53' E 143°02'1318.0
2015-Aug-14 03:33S 38°51' E 142°45'1818.3
2015-Aug-14 02:33S 38°48' E 142°23'1918.5
2015-Aug-14 01:33S 38°45' E 141°59'1918.7
2015-Aug-14 00:33S 38°42' E 141°35'2219.1
2015-Aug-13 23:25S 38°39' E 141°08'1719.2
2015-Aug-13 22:33S 38°36' E 140°47'2018.8
2015-Aug-13 21:29S 38°33' E 140°22'1818.6
2015-Aug-13 20:30S 38°30' E 139°59'1818.7
2015-Aug-13 19:32S 38°27' E 139°36'47618.6
2015-Aug-12 18:00S 37°06' E 129°42'   260 / 161021.310.8 12.0 15.0
Track history (hours):
 
Tides and Currents Weather Stations Pressure Air Temp Water Temp Dewpoint Dewpoint Depression Visibility Wind Speed Wind Dir Waves Ship Positions

Fedora

Last reported at 2015-Aug-22 18:00 UTC. Time now 2015-Aug-29 00:16 UTC.
Position S 02°30' E 152°48'.

Length 228 m; draft 8.3 m.

Type: Cargo ship. MMSI: 266259000.

Wind from 150 at 14 knots

Barometer 1010.9 mb
Air temperature 24.0 ° C
Visibility: greater than 10.8 NM
Water temperature 29.0 ° C

Date/timePositionNaut miles runAvg speedWind from/ knotsBaromVisibWave heightAir tempDewpointWater temp
2015-Aug-22 18:00S 02°30' E 152°48'20817.4 150 / 141010.910.8 24.0 29.0
2015-Aug-22 06:00S 05°54' E 153°30'42417.7 170 / 81010.610.8 28.0 29.0
2015-Aug-21 06:00S 12°54' E 154°30'10818.0 130 / 161012.210.8 26.0 28.0
2015-Aug-21 00:00S 14°42' E 154°24'71717.7 120 / 101015.310.8 26.0 27.0
2015-Aug-19 07:33S 26°36' E 153°15'1413.6
2015-Aug-19 06:30S 26°49' E 153°09'1717.7
2015-Aug-19 05:33S 27°04' E 153°18'1514.2
2015-Aug-19 04:32S 27°18' E 153°13'6 0.8
2015-Aug-18 21:33S 27°23' E 153°10'7 7.1
2015-Aug-18 20:33S 27°17' E 153°14'1413.8
2015-Aug-18 19:33S 27°03' E 153°18'1615.9
2015-Aug-18 18:33S 26°49' E 153°09'8 8.3
2015-Aug-18 17:33S 26°43' E 153°15'1413.3
2015-Aug-18 16:28S 26°52' E 153°27'1213.1
2015-Aug-18 15:33S 27°02' E 153°35'1613.5
2015-Aug-18 14:20S 27°18' E 153°39'1114.0
2015-Aug-18 13:34S 27°28' E 153°40'1414.5
2015-Aug-18 12:34S 27°43' E 153°41'1814.6
2015-Aug-18 11:20S 28°01' E 153°42'24815.2
2015-Aug-17 19:03S 32°04' E 152°48'916.0
2015-Aug-17 18:29S 32°13' E 152°44'1515.9
2015-Aug-17 17:33S 32°26' E 152°37'1515.5
2015-Aug-17 16:33S 32°39' E 152°28'1616.1
2015-Aug-17 15:33S 32°53' E 152°17'1616.2
2015-Aug-17 14:33S 33°06' E 152°06'1716.6
2015-Aug-17 13:33S 33°20' E 151°55'244 8.4
2015-Aug-16 08:31S 37°09' E 150°13'1717.7
2015-Aug-16 07:33S 37°26' E 150°06'1716.9
2015-Aug-16 06:33S 37°40' E 149°55'1717.5
2015-Aug-16 05:33S 37°52' E 149°40'2117.7
2015-Aug-16 04:24S 38°05' E 149°20'1517.3
2015-Aug-16 03:32S 38°15' E 149°05'3517.7
2015-Aug-16 01:33S 38°37' E 148°31'1717.4
2015-Aug-16 00:33S 38°47' E 148°12'2017.5
2015-Aug-15 23:23S 38°54' E 147°48'1517.5
2015-Aug-15 22:33S 38°59' E 147°30'1817.7
2015-Aug-15 21:33S 39°06' E 147°09'1818.0
2015-Aug-15 20:33S 39°12' E 146°47'1818.0
2015-Aug-15 19:33S 39°16' E 146°24'1817.9
2015-Aug-15 18:33S 39°10' E 146°02'1818.1
2015-Aug-15 17:33S 39°00' E 145°43'2118.3
2015-Aug-15 16:25S 38°48' E 145°20'108 3.0
2015-Aug-14 04:17S 38°53' E 143°02'1318.0
2015-Aug-14 03:33S 38°51' E 142°45'1818.3
2015-Aug-14 02:33S 38°48' E 142°23'1918.5
2015-Aug-14 01:33S 38°45' E 141°59'1918.7
2015-Aug-14 00:33S 38°42' E 141°35'2219.1
2015-Aug-13 23:25S 38°39' E 141°08'1719.2
2015-Aug-13 22:33S 38°36' E 140°47'2018.8
2015-Aug-13 21:29S 38°33' E 140°22'1818.6
2015-Aug-13 20:30S 38°30' E 139°59'1818.7
2015-Aug-13 19:32S 38°27' E 139°36'47618.6
2015-Aug-12 18:00S 37°06' E 129°42'   260 / 161021.310.8 12.0 15.0

Dump ship's entire track history